sensor_id;sensor_type;location;lat;lon;timestamp;P1;durP1;ratioP1;P2;durP2;ratioP2
46036;SDS011;31769;49.304;8.428;2022-10-16T00:01:31;3.65;;;1.27;;
46036;SDS011;31769;49.304;8.428;2022-10-16T00:04:31;2.97;;;1.58;;
46036;SDS011;31769;49.304;8.428;2022-10-16T00:07:32;1.52;;;1.25;;
46036;SDS011;31769;49.304;8.428;2022-10-16T00:10:33;3.15;;;1.23;;
46036;SDS011;31769;49.304;8.428;2022-10-16T00:13:34;6.97;;;1.65;;
46036;SDS011;31769;49.304;8.428;2022-10-16T00:16:36;7.78;;;1.58;;
46036;SDS011;31769;49.304;8.428;2022-10-16T00:19:37;4.32;;;1.60;;
46036;SDS011;31769;49.304;8.428;2022-10-16T00:22:37;12.02;;;1.90;;
46036;SDS011;31769;49.304;8.428;2022-10-16T00:25:38;4.40;;;1.67;;
46036;SDS011;31769;49.304;8.428;2022-10-16T00:28:39;3.03;;;1.58;;
46036;SDS011;31769;49.304;8.428;2022-10-16T00:31:40;3.55;;;1.70;;
46036;SDS011;31769;49.304;8.428;2022-10-16T00:34:40;4.70;;;1.63;;
46036;SDS011;31769;49.304;8.428;2022-10-16T00:37:41;3.00;;;1.60;;
46036;SDS011;31769;49.304;8.428;2022-10-16T00:40:42;5.75;;;1.58;;
46036;SDS011;31769;49.304;8.428;2022-10-16T00:43:47;2.40;;;1.60;;
46036;SDS011;31769;49.304;8.428;2022-10-16T00:46:55;5.85;;;1.50;;
46036;SDS011;31769;49.304;8.428;2022-10-16T00:49:58;5.00;;;1.63;;
46036;SDS011;31769;49.304;8.428;2022-10-16T00:53:05;8.65;;;1.90;;
46036;SDS011;31769;49.304;8.428;2022-10-16T00:56:06;4.70;;;1.60;;
46036;SDS011;31769;49.304;8.428;2022-10-16T00:59:09;4.65;;;1.40;;
46036;SDS011;31769;49.304;8.428;2022-10-16T01:02:19;5.40;;;1.30;;
46036;SDS011;31769;49.304;8.428;2022-10-16T01:05:21;5.78;;;1.70;;
46036;SDS011;31769;49.304;8.428;2022-10-16T01:08:39;2.88;;;1.90;;
46036;SDS011;31769;49.304;8.428;2022-10-16T01:15:10;5.93;;;2.58;;
46036;SDS011;31769;49.304;8.428;2022-10-16T01:18:23;6.38;;;2.67;;
46036;SDS011;31769;49.304;8.428;2022-10-16T01:21:35;8.38;;;2.40;;
46036;SDS011;31769;49.304;8.428;2022-10-16T01:24:41;7.13;;;2.22;;
46036;SDS011;31769;49.304;8.428;2022-10-16T01:27:45;3.60;;;2.40;;
46036;SDS011;31769;49.304;8.428;2022-10-16T01:30:48;4.15;;;2.30;;
46036;SDS011;31769;49.304;8.428;2022-10-16T01:34:00;5.25;;;2.35;;
46036;SDS011;31769;49.304;8.428;2022-10-16T01:37:07;6.68;;;2.20;;
46036;SDS011;31769;49.304;8.428;2022-10-16T01:40:13;2.78;;;2.20;;
46036;SDS011;31769;49.304;8.428;2022-10-16T01:43:20;5.10;;;2.33;;
46036;SDS011;31769;49.304;8.428;2022-10-16T01:46:26;2.88;;;2.25;;
46036;SDS011;31769;49.304;8.428;2022-10-16T01:49:30;2.58;;;1.80;;
46036;SDS011;31769;49.304;8.428;2022-10-16T01:52:34;10.68;;;2.65;;
46036;SDS011;31769;49.304;8.428;2022-10-16T01:55:38;6.95;;;2.70;;
46036;SDS011;31769;49.304;8.428;2022-10-16T01:58:45;3.97;;;2.72;;
46036;SDS011;31769;49.304;8.428;2022-10-16T02:01:59;3.38;;;2.05;;
46036;SDS011;31769;49.304;8.428;2022-10-16T02:05:08;1.85;;;1.75;;
46036;SDS011;31769;49.304;8.428;2022-10-16T02:08:16;4.03;;;2.15;;
46036;SDS011;31769;49.304;8.428;2022-10-16T02:11:16;4.82;;;2.25;;
46036;SDS011;31769;49.304;8.428;2022-10-16T02:14:17;3.90;;;2.20;;
46036;SDS011;31769;49.304;8.428;2022-10-16T02:17:19;11.15;;;2.75;;
46036;SDS011;31769;49.304;8.428;2022-10-16T02:20:22;3.83;;;2.00;;
46036;SDS011;31769;49.304;8.428;2022-10-16T02:24:11;6.75;;;2.05;;
46036;SDS011;31769;49.304;8.428;2022-10-16T02:30:19;8.93;;;2.20;;
46036;SDS011;31769;49.304;8.428;2022-10-16T02:33:27;4.20;;;2.10;;
46036;SDS011;31769;49.304;8.428;2022-10-16T02:36:29;4.00;;;1.95;;
46036;SDS011;31769;49.304;8.428;2022-10-16T02:39:30;4.22;;;2.08;;
46036;SDS011;31769;49.304;8.428;2022-10-16T02:42:35;9.82;;;2.15;;
46036;SDS011;31769;49.304;8.428;2022-10-16T02:45:37;9.48;;;2.10;;
46036;SDS011;31769;49.304;8.428;2022-10-16T02:48:38;5.85;;;2.13;;
46036;SDS011;31769;49.304;8.428;2022-10-16T02:51:39;7.13;;;1.80;;
46036;SDS011;31769;49.304;8.428;2022-10-16T02:54:39;4.70;;;1.88;;
46036;SDS011;31769;49.304;8.428;2022-10-16T02:57:40;2.78;;;1.92;;
46036;SDS011;31769;49.304;8.428;2022-10-16T03:00:41;8.40;;;2.00;;
46036;SDS011;31769;49.304;8.428;2022-10-16T03:03:42;3.25;;;2.08;;
46036;SDS011;31769;49.304;8.428;2022-10-16T03:06:43;4.85;;;2.20;;
46036;SDS011;31769;49.304;8.428;2022-10-16T03:09:43;5.30;;;2.45;;
46036;SDS011;31769;49.304;8.428;2022-10-16T03:12:44;6.93;;;2.45;;
46036;SDS011;31769;49.304;8.428;2022-10-16T03:15:44;9.00;;;2.53;;
46036;SDS011;31769;49.304;8.428;2022-10-16T03:18:48;6.35;;;1.90;;
46036;SDS011;31769;49.304;8.428;2022-10-16T03:21:49;5.47;;;2.38;;
46036;SDS011;31769;49.304;8.428;2022-10-16T03:24:50;4.40;;;1.98;;
46036;SDS011;31769;49.304;8.428;2022-10-16T03:27:51;2.33;;;1.92;;
46036;SDS011;31769;49.304;8.428;2022-10-16T03:30:52;5.80;;;2.30;;
46036;SDS011;31769;49.304;8.428;2022-10-16T03:33:53;6.25;;;2.17;;
46036;SDS011;31769;49.304;8.428;2022-10-16T03:36:53;5.22;;;2.50;;
46036;SDS011;31769;49.304;8.428;2022-10-16T03:39:54;5.40;;;2.22;;
46036;SDS011;31769;49.304;8.428;2022-10-16T03:42:54;7.07;;;2.30;;
46036;SDS011;31769;49.304;8.428;2022-10-16T03:45:57;5.28;;;2.05;;
46036;SDS011;31769;49.304;8.428;2022-10-16T03:48:58;3.85;;;2.30;;
46036;SDS011;31769;49.304;8.428;2022-10-16T03:51:58;4.65;;;2.35;;
46036;SDS011;31769;49.304;8.428;2022-10-16T03:54:59;7.25;;;2.17;;
46036;SDS011;31769;49.304;8.428;2022-10-16T03:57:59;5.13;;;2.10;;
46036;SDS011;31769;49.304;8.428;2022-10-16T04:01:00;4.65;;;2.22;;
46036;SDS011;31769;49.304;8.428;2022-10-16T04:04:01;6.35;;;2.15;;
46036;SDS011;31769;49.304;8.428;2022-10-16T04:07:01;8.57;;;2.42;;
46036;SDS011;31769;49.304;8.428;2022-10-16T04:10:02;4.68;;;2.20;;
46036;SDS011;31769;49.304;8.428;2022-10-16T04:13:03;3.20;;;1.92;;
46036;SDS011;31769;49.304;8.428;2022-10-16T04:16:04;3.50;;;2.00;;
46036;SDS011;31769;49.304;8.428;2022-10-16T04:19:05;12.27;;;2.60;;
46036;SDS011;31769;49.304;8.428;2022-10-16T04:22:06;6.43;;;2.40;;
46036;SDS011;31769;49.304;8.428;2022-10-16T04:25:06;3.55;;;2.08;;
46036;SDS011;31769;49.304;8.428;2022-10-16T04:28:07;8.63;;;2.42;;
46036;SDS011;31769;49.304;8.428;2022-10-16T04:31:08;4.75;;;2.30;;
46036;SDS011;31769;49.304;8.428;2022-10-16T04:34:09;9.20;;;2.22;;
46036;SDS011;31769;49.304;8.428;2022-10-16T04:37:09;5.20;;;1.95;;
46036;SDS011;31769;49.304;8.428;2022-10-16T04:40:10;9.55;;;1.77;;
46036;SDS011;31769;49.304;8.428;2022-10-16T04:43:11;2.13;;;1.92;;
46036;SDS011;31769;49.304;8.428;2022-10-16T04:46:11;3.70;;;2.10;;
46036;SDS011;31769;49.304;8.428;2022-10-16T04:49:12;4.35;;;1.85;;
46036;SDS011;31769;49.304;8.428;2022-10-16T04:52:13;2.95;;;2.05;;
46036;SDS011;31769;49.304;8.428;2022-10-16T04:55:13;6.43;;;1.98;;
46036;SDS011;31769;49.304;8.428;2022-10-16T04:58:15;4.97;;;1.80;;
46036;SDS011;31769;49.304;8.428;2022-10-16T05:01:15;7.35;;;2.13;;
46036;SDS011;31769;49.304;8.428;2022-10-16T05:04:16;8.20;;;1.98;;
46036;SDS011;31769;49.304;8.428;2022-10-16T05:07:17;6.53;;;2.08;;
46036;SDS011;31769;49.304;8.428;2022-10-16T05:10:18;10.35;;;2.08;;
46036;SDS011;31769;49.304;8.428;2022-10-16T05:13:18;1.88;;;1.77;;
46036;SDS011;31769;49.304;8.428;2022-10-16T05:16:19;3.63;;;1.70;;
46036;SDS011;31769;49.304;8.428;2022-10-16T05:19:19;7.00;;;1.92;;
46036;SDS011;31769;49.304;8.428;2022-10-16T05:22:20;8.52;;;2.17;;
46036;SDS011;31769;49.304;8.428;2022-10-16T05:25:21;7.80;;;2.33;;
46036;SDS011;31769;49.304;8.428;2022-10-16T05:28:21;7.00;;;2.15;;
46036;SDS011;31769;49.304;8.428;2022-10-16T05:31:22;4.72;;;2.58;;
46036;SDS011;31769;49.304;8.428;2022-10-16T05:34:23;3.80;;;2.25;;
46036;SDS011;31769;49.304;8.428;2022-10-16T05:37:23;4.25;;;2.10;;
46036;SDS011;31769;49.304;8.428;2022-10-16T05:40:24;4.28;;;1.88;;
46036;SDS011;31769;49.304;8.428;2022-10-16T05:43:26;9.18;;;1.77;;
46036;SDS011;31769;49.304;8.428;2022-10-16T05:46:27;10.07;;;2.35;;
46036;SDS011;31769;49.304;8.428;2022-10-16T05:49:28;3.10;;;1.80;;
46036;SDS011;31769;49.304;8.428;2022-10-16T05:52:28;6.20;;;1.70;;
46036;SDS011;31769;49.304;8.428;2022-10-16T05:55:29;5.82;;;1.60;;
46036;SDS011;31769;49.304;8.428;2022-10-16T05:58:34;4.70;;;1.40;;
46036;SDS011;31769;49.304;8.428;2022-10-16T06:01:36;5.73;;;1.67;;
46036;SDS011;31769;49.304;8.428;2022-10-16T06:04:36;3.53;;;1.70;;
46036;SDS011;31769;49.304;8.428;2022-10-16T06:07:37;4.40;;;2.25;;
46036;SDS011;31769;49.304;8.428;2022-10-16T06:10:38;3.20;;;1.60;;
46036;SDS011;31769;49.304;8.428;2022-10-16T06:13:38;4.40;;;1.73;;
46036;SDS011;31769;49.304;8.428;2022-10-16T06:16:41;1.80;;;1.70;;
46036;SDS011;31769;49.304;8.428;2022-10-16T06:19:42;4.13;;;1.65;;
46036;SDS011;31769;49.304;8.428;2022-10-16T06:22:43;2.55;;;1.70;;
46036;SDS011;31769;49.304;8.428;2022-10-16T06:25:44;4.88;;;2.30;;
46036;SDS011;31769;49.304;8.428;2022-10-16T06:28:44;3.53;;;1.80;;
46036;SDS011;31769;49.304;8.428;2022-10-16T06:31:45;3.17;;;2.00;;
46036;SDS011;31769;49.304;8.428;2022-10-16T06:34:46;5.75;;;2.25;;
46036;SDS011;31769;49.304;8.428;2022-10-16T06:37:46;5.40;;;1.98;;
46036;SDS011;31769;49.304;8.428;2022-10-16T06:40:47;3.33;;;2.00;;
46036;SDS011;31769;49.304;8.428;2022-10-16T06:43:48;6.85;;;2.08;;
46036;SDS011;31769;49.304;8.428;2022-10-16T06:46:49;1.98;;;1.63;;
46036;SDS011;31769;49.304;8.428;2022-10-16T06:49:50;1.55;;;1.42;;
46036;SDS011;31769;49.304;8.428;2022-10-16T06:52:50;2.80;;;1.52;;
46036;SDS011;31769;49.304;8.428;2022-10-16T06:55:51;4.00;;;1.63;;
46036;SDS011;31769;49.304;8.428;2022-10-16T06:58:52;6.82;;;1.73;;
46036;SDS011;31769;49.304;8.428;2022-10-16T07:01:53;9.13;;;1.50;;
46036;SDS011;31769;49.304;8.428;2022-10-16T07:04:54;3.33;;;1.67;;
46036;SDS011;31769;49.304;8.428;2022-10-16T07:07:57;4.70;;;1.17;;
46036;SDS011;31769;49.304;8.428;2022-10-16T07:10:58;2.70;;;1.40;;
46036;SDS011;31769;49.304;8.428;2022-10-16T07:14:03;5.32;;;1.23;;
46036;SDS011;31769;49.304;8.428;2022-10-16T07:17:04;4.50;;;1.45;;
46036;SDS011;31769;49.304;8.428;2022-10-16T07:20:04;4.72;;;1.70;;
46036;SDS011;31769;49.304;8.428;2022-10-16T07:23:05;3.22;;;1.73;;
46036;SDS011;31769;49.304;8.428;2022-10-16T07:26:06;4.20;;;1.50;;
46036;SDS011;31769;49.304;8.428;2022-10-16T07:29:12;4.50;;;1.55;;
46036;SDS011;31769;49.304;8.428;2022-10-16T07:32:14;4.32;;;1.67;;
46036;SDS011;31769;49.304;8.428;2022-10-16T07:35:15;2.58;;;1.02;;
46036;SDS011;31769;49.304;8.428;2022-10-16T07:38:15;4.95;;;1.63;;
46036;SDS011;31769;49.304;8.428;2022-10-16T07:41:17;6.90;;;1.10;;
46036;SDS011;31769;49.304;8.428;2022-10-16T07:44:19;3.70;;;1.30;;
46036;SDS011;31769;49.304;8.428;2022-10-16T07:47:20;3.08;;;1.08;;
46036;SDS011;31769;49.304;8.428;2022-10-16T07:50:21;3.22;;;1.15;;
46036;SDS011;31769;49.304;8.428;2022-10-16T07:53:21;2.63;;;1.25;;
46036;SDS011;31769;49.304;8.428;2022-10-16T07:56:22;2.33;;;0.95;;
46036;SDS011;31769;49.304;8.428;2022-10-16T07:59:23;2.13;;;1.30;;
46036;SDS011;31769;49.304;8.428;2022-10-16T08:02:24;5.32;;;1.10;;
46036;SDS011;31769;49.304;8.428;2022-10-16T08:05:25;1.45;;;1.20;;
46036;SDS011;31769;49.304;8.428;2022-10-16T08:08:27;5.07;;;1.15;;
46036;SDS011;31769;49.304;8.428;2022-10-16T08:11:27;6.53;;;1.40;;
46036;SDS011;31769;49.304;8.428;2022-10-16T08:14:28;3.03;;;1.02;;
46036;SDS011;31769;49.304;8.428;2022-10-16T08:17:29;7.78;;;1.67;;
46036;SDS011;31769;49.304;8.428;2022-10-16T08:20:31;5.47;;;1.60;;
46036;SDS011;31769;49.304;8.428;2022-10-16T08:23:33;6.43;;;1.67;;
46036;SDS011;31769;49.304;8.428;2022-10-16T08:26:33;6.47;;;1.83;;
46036;SDS011;31769;49.304;8.428;2022-10-16T08:29:34;2.17;;;1.73;;
46036;SDS011;31769;49.304;8.428;2022-10-16T08:32:35;5.25;;;1.30;;
46036;SDS011;31769;49.304;8.428;2022-10-16T08:35:35;2.13;;;1.60;;
46036;SDS011;31769;49.304;8.428;2022-10-16T08:38:36;5.93;;;2.25;;
46036;SDS011;31769;49.304;8.428;2022-10-16T08:41:46;6.60;;;1.90;;
46036;SDS011;31769;49.304;8.428;2022-10-16T08:45:17;7.57;;;1.58;;
46036;SDS011;31769;49.304;8.428;2022-10-16T08:48:45;4.93;;;1.75;;
46036;SDS011;31769;49.304;8.428;2022-10-16T08:51:50;5.47;;;1.92;;
46036;SDS011;31769;49.304;8.428;2022-10-16T08:54:51;2.95;;;1.90;;
46036;SDS011;31769;49.304;8.428;2022-10-16T08:57:55;4.43;;;1.60;;
46036;SDS011;31769;49.304;8.428;2022-10-16T09:00:57;6.75;;;1.95;;
46036;SDS011;31769;49.304;8.428;2022-10-16T09:07:16;6.45;;;1.75;;
46036;SDS011;31769;49.304;8.428;2022-10-16T09:14:00;7.03;;;1.92;;
46036;SDS011;31769;49.304;8.428;2022-10-16T09:23:37;4.63;;;1.58;;
46036;SDS011;31769;49.304;8.428;2022-10-16T09:26:38;5.72;;;1.73;;
46036;SDS011;31769;49.304;8.428;2022-10-16T09:29:39;6.28;;;1.50;;
46036;SDS011;31769;49.304;8.428;2022-10-16T09:32:41;3.70;;;1.40;;
46036;SDS011;31769;49.304;8.428;2022-10-16T09:35:47;3.33;;;1.25;;
46036;SDS011;31769;49.304;8.428;2022-10-16T09:39:02;5.35;;;1.70;;
46036;SDS011;31769;49.304;8.428;2022-10-16T09:42:05;2.05;;;1.08;;
46036;SDS011;31769;49.304;8.428;2022-10-16T09:45:06;2.65;;;0.98;;
46036;SDS011;31769;49.304;8.428;2022-10-16T09:48:21;5.73;;;1.57;;
46036;SDS011;31769;49.304;8.428;2022-10-16T09:51:27;4.22;;;1.38;;
46036;SDS011;31769;49.304;8.428;2022-10-16T09:54:32;7.32;;;1.73;;
46036;SDS011;31769;49.304;8.428;2022-10-16T09:57:33;4.32;;;1.17;;
46036;SDS011;31769;49.304;8.428;2022-10-16T10:00:34;4.78;;;1.10;;
46036;SDS011;31769;49.304;8.428;2022-10-16T10:03:39;7.85;;;1.35;;
46036;SDS011;31769;49.304;8.428;2022-10-16T10:09:49;4.32;;;1.08;;
46036;SDS011;31769;49.304;8.428;2022-10-16T10:12:50;8.23;;;1.27;;
46036;SDS011;31769;49.304;8.428;2022-10-16T10:15:51;6.50;;;0.80;;
46036;SDS011;31769;49.304;8.428;2022-10-16T10:18:59;4.28;;;0.95;;
46036;SDS011;31769;49.304;8.428;2022-10-16T10:22:00;3.22;;;0.98;;
46036;SDS011;31769;49.304;8.428;2022-10-16T10:25:11;3.20;;;0.88;;
46036;SDS011;31769;49.304;8.428;2022-10-16T10:28:17;5.88;;;1.10;;
46036;SDS011;31769;49.304;8.428;2022-10-16T10:31:26;5.60;;;1.25;;
46036;SDS011;31769;49.304;8.428;2022-10-16T10:34:51;8.73;;;3.45;;
46036;SDS011;31769;49.304;8.428;2022-10-16T10:45:14;2.50;;;1.07;;
46036;SDS011;31769;49.304;8.428;2022-10-16T10:52:20;4.60;;;1.00;;
46036;SDS011;31769;49.304;8.428;2022-10-16T11:05:42;4.38;;;0.88;;
46036;SDS011;31769;49.304;8.428;2022-10-16T11:08:48;2.78;;;0.98;;
46036;SDS011;31769;49.304;8.428;2022-10-16T11:11:52;3.53;;;1.10;;
46036;SDS011;31769;49.304;8.428;2022-10-16T11:18:41;3.28;;;1.13;;
46036;SDS011;31769;49.304;8.428;2022-10-16T11:25:18;3.55;;;1.00;;
46036;SDS011;31769;49.304;8.428;2022-10-16T11:29:03;5.45;;;1.00;;
46036;SDS011;31769;49.304;8.428;2022-10-16T11:31:52;4.25;;;1.30;;
46036;SDS011;31769;49.304;8.428;2022-10-16T11:34:59;5.13;;;0.75;;
46036;SDS011;31769;49.304;8.428;2022-10-16T11:38:10;1.38;;;0.90;;
46036;SDS011;31769;49.304;8.428;2022-10-16T11:41:26;8.20;;;1.00;;
46036;SDS011;31769;49.304;8.428;2022-10-16T11:44:33;2.15;;;1.20;;
46036;SDS011;31769;49.304;8.428;2022-10-16T11:48:07;5.55;;;1.10;;
46036;SDS011;31769;49.304;8.428;2022-10-16T11:57:56;3.08;;;0.90;;
46036;SDS011;31769;49.304;8.428;2022-10-16T12:07:38;4.03;;;0.82;;
46036;SDS011;31769;49.304;8.428;2022-10-16T12:10:44;4.53;;;1.02;;
46036;SDS011;31769;49.304;8.428;2022-10-16T12:13:46;2.97;;;1.00;;
46036;SDS011;31769;49.304;8.428;2022-10-16T12:16:53;2.33;;;1.17;;
46036;SDS011;31769;49.304;8.428;2022-10-16T12:20:36;7.68;;;1.20;;
46036;SDS011;31769;49.304;8.428;2022-10-16T12:26:23;2.85;;;1.25;;
46036;SDS011;31769;49.304;8.428;2022-10-16T12:29:38;5.50;;;1.00;;
46036;SDS011;31769;49.304;8.428;2022-10-16T12:32:42;0.98;;;0.82;;
46036;SDS011;31769;49.304;8.428;2022-10-16T12:35:43;3.20;;;0.80;;
46036;SDS011;31769;49.304;8.428;2022-10-16T12:38:46;3.65;;;1.13;;
46036;SDS011;31769;49.304;8.428;2022-10-16T12:42:02;5.78;;;1.13;;
46036;SDS011;31769;49.304;8.428;2022-10-16T12:48:25;4.72;;;1.10;;
46036;SDS011;31769;49.304;8.428;2022-10-16T12:54:31;4.25;;;1.00;;
46036;SDS011;31769;49.304;8.428;2022-10-16T13:01:19;4.35;;;1.00;;
46036;SDS011;31769;49.304;8.428;2022-10-16T13:04:30;2.08;;;1.30;;
46036;SDS011;31769;49.304;8.428;2022-10-16T13:08:05;5.50;;;1.23;;
46036;SDS011;31769;49.304;8.428;2022-10-16T13:15:12;1.52;;;1.05;;
46036;SDS011;31769;49.304;8.428;2022-10-16T13:18:25;2.45;;;1.58;;
46036;SDS011;31769;49.304;8.428;2022-10-16T13:21:38;1.20;;;1.10;;
46036;SDS011;31769;49.304;8.428;2022-10-16T13:25:49;6.97;;;1.15;;
46036;SDS011;31769;49.304;8.428;2022-10-16T13:28:50;8.32;;;1.40;;
46036;SDS011;31769;49.304;8.428;2022-10-16T13:31:51;6.10;;;1.35;;
46036;SDS011;31769;49.304;8.428;2022-10-16T13:34:51;5.78;;;1.63;;
46036;SDS011;31769;49.304;8.428;2022-10-16T13:38:11;7.93;;;2.08;;
46036;SDS011;31769;49.304;8.428;2022-10-16T13:41:17;3.38;;;1.23;;
46036;SDS011;31769;49.304;8.428;2022-10-16T13:44:18;4.20;;;2.00;;
46036;SDS011;31769;49.304;8.428;2022-10-16T13:47:24;7.35;;;4.63;;
46036;SDS011;31769;49.304;8.428;2022-10-16T13:50:26;1.73;;;1.35;;
46036;SDS011;31769;49.304;8.428;2022-10-16T13:53:27;5.60;;;1.52;;
46036;SDS011;31769;49.304;8.428;2022-10-16T13:56:30;3.22;;;1.48;;
46036;SDS011;31769;49.304;8.428;2022-10-16T13:59:33;4.07;;;1.40;;
46036;SDS011;31769;49.304;8.428;2022-10-16T14:02:35;5.53;;;1.50;;
46036;SDS011;31769;49.304;8.428;2022-10-16T14:06:21;3.90;;;1.40;;
46036;SDS011;31769;49.304;8.428;2022-10-16T14:09:08;2.58;;;1.50;;
46036;SDS011;31769;49.304;8.428;2022-10-16T14:12:18;5.97;;;1.50;;
46036;SDS011;31769;49.304;8.428;2022-10-16T14:15:19;7.22;;;1.35;;
46036;SDS011;31769;49.304;8.428;2022-10-16T14:18:21;3.00;;;1.20;;
46036;SDS011;31769;49.304;8.428;2022-10-16T14:21:25;4.28;;;2.60;;
46036;SDS011;31769;49.304;8.428;2022-10-16T14:24:30;6.78;;;3.95;;
46036;SDS011;31769;49.304;8.428;2022-10-16T14:27:35;11.05;;;3.75;;
46036;SDS011;31769;49.304;8.428;2022-10-16T14:30:37;8.85;;;6.65;;
46036;SDS011;31769;49.304;8.428;2022-10-16T14:33:37;9.88;;;8.35;;
46036;SDS011;31769;49.304;8.428;2022-10-16T14:36:40;6.90;;;5.88;;
46036;SDS011;31769;49.304;8.428;2022-10-16T14:39:41;4.57;;;3.13;;
46036;SDS011;31769;49.304;8.428;2022-10-16T14:42:48;8.43;;;5.85;;
46036;SDS011;31769;49.304;8.428;2022-10-16T14:45:50;6.57;;;4.03;;
46036;SDS011;31769;49.304;8.428;2022-10-16T14:49:15;5.20;;;3.72;;
46036;SDS011;31769;49.304;8.428;2022-10-16T14:52:17;2.88;;;2.60;;
46036;SDS011;31769;49.304;8.428;2022-10-16T14:55:18;4.38;;;1.75;;
46036;SDS011;31769;49.304;8.428;2022-10-16T14:58:20;8.38;;;1.10;;
46036;SDS011;31769;49.304;8.428;2022-10-16T15:01:22;4.53;;;0.80;;
46036;SDS011;31769;49.304;8.428;2022-10-16T15:04:22;6.40;;;1.15;;
46036;SDS011;31769;49.304;8.428;2022-10-16T15:07:23;2.25;;;1.15;;
46036;SDS011;31769;49.304;8.428;2022-10-16T15:10:25;3.95;;;1.38;;
46036;SDS011;31769;49.304;8.428;2022-10-16T15:13:28;2.97;;;1.25;;
46036;SDS011;31769;49.304;8.428;2022-10-16T15:16:28;5.95;;;1.42;;
46036;SDS011;31769;49.304;8.428;2022-10-16T15:19:30;12.13;;;6.35;;
46036;SDS011;31769;49.304;8.428;2022-10-16T15:22:31;8.68;;;2.25;;
46036;SDS011;31769;49.304;8.428;2022-10-16T15:25:36;4.90;;;2.63;;
46036;SDS011;31769;49.304;8.428;2022-10-16T15:28:41;8.88;;;3.83;;
46036;SDS011;31769;49.304;8.428;2022-10-16T15:31:42;8.65;;;2.30;;
46036;SDS011;31769;49.304;8.428;2022-10-16T15:34:43;25.02;;;19.20;;
46036;SDS011;31769;49.304;8.428;2022-10-16T15:37:43;6.15;;;3.40;;
46036;SDS011;31769;49.304;8.428;2022-10-16T15:40:45;7.60;;;2.67;;
46036;SDS011;31769;49.304;8.428;2022-10-16T15:43:49;6.65;;;2.33;;
46036;SDS011;31769;49.304;8.428;2022-10-16T15:46:50;5.47;;;2.00;;
46036;SDS011;31769;49.304;8.428;2022-10-16T15:49:54;7.82;;;1.65;;
46036;SDS011;31769;49.304;8.428;2022-10-16T15:52:55;3.03;;;1.25;;
46036;SDS011;31769;49.304;8.428;2022-10-16T15:55:55;2.63;;;1.17;;
46036;SDS011;31769;49.304;8.428;2022-10-16T15:58:56;6.63;;;3.40;;
46036;SDS011;31769;49.304;8.428;2022-10-16T16:01:58;3.88;;;2.53;;
46036;SDS011;31769;49.304;8.428;2022-10-16T16:04:58;2.20;;;1.33;;
46036;SDS011;31769;49.304;8.428;2022-10-16T16:07:59;10.32;;;1.88;;
46036;SDS011;31769;49.304;8.428;2022-10-16T16:11:04;2.67;;;0.90;;
46036;SDS011;31769;49.304;8.428;2022-10-16T16:14:06;4.05;;;1.52;;
46036;SDS011;31769;49.304;8.428;2022-10-16T16:17:07;1.88;;;0.80;;
46036;SDS011;31769;49.304;8.428;2022-10-16T16:20:08;4.60;;;1.20;;
46036;SDS011;31769;49.304;8.428;2022-10-16T16:23:09;6.93;;;1.67;;
46036;SDS011;31769;49.304;8.428;2022-10-16T16:26:14;4.50;;;2.15;;
46036;SDS011;31769;49.304;8.428;2022-10-16T16:29:23;5.35;;;1.65;;
46036;SDS011;31769;49.304;8.428;2022-10-16T16:32:24;4.07;;;1.50;;
46036;SDS011;31769;49.304;8.428;2022-10-16T16:35:25;4.15;;;1.88;;
46036;SDS011;31769;49.304;8.428;2022-10-16T16:38:25;3.67;;;2.00;;
46036;SDS011;31769;49.304;8.428;2022-10-16T16:41:27;6.35;;;3.55;;
46036;SDS011;31769;49.304;8.428;2022-10-16T16:44:29;6.22;;;3.50;;
46036;SDS011;31769;49.304;8.428;2022-10-16T16:47:30;8.77;;;4.47;;
46036;SDS011;31769;49.304;8.428;2022-10-16T16:50:34;16.85;;;6.70;;
46036;SDS011;31769;49.304;8.428;2022-10-16T16:53:36;7.13;;;3.97;;
46036;SDS011;31769;49.304;8.428;2022-10-16T16:56:37;3.65;;;3.15;;
46036;SDS011;31769;49.304;8.428;2022-10-16T16:59:38;7.32;;;3.70;;
46036;SDS011;31769;49.304;8.428;2022-10-16T17:02:39;6.22;;;3.83;;
46036;SDS011;31769;49.304;8.428;2022-10-16T17:05:43;6.28;;;4.10;;
46036;SDS011;31769;49.304;8.428;2022-10-16T17:08:43;14.75;;;9.10;;
46036;SDS011;31769;49.304;8.428;2022-10-16T17:11:44;21.15;;;15.00;;
46036;SDS011;31769;49.304;8.428;2022-10-16T17:14:45;10.10;;;8.25;;
46036;SDS011;31769;49.304;8.428;2022-10-16T17:17:46;8.27;;;6.72;;
46036;SDS011;31769;49.304;8.428;2022-10-16T17:20:47;9.10;;;5.43;;
46036;SDS011;31769;49.304;8.428;2022-10-16T17:23:50;8.45;;;4.40;;
46036;SDS011;31769;49.304;8.428;2022-10-16T17:26:52;5.78;;;4.10;;
46036;SDS011;31769;49.304;8.428;2022-10-16T17:29:53;6.18;;;4.80;;
46036;SDS011;31769;49.304;8.428;2022-10-16T17:32:53;4.15;;;3.70;;
46036;SDS011;31769;49.304;8.428;2022-10-16T17:35:54;8.02;;;4.22;;
46036;SDS011;31769;49.304;8.428;2022-10-16T17:39:05;4.32;;;3.92;;
46036;SDS011;31769;49.304;8.428;2022-10-16T17:42:07;7.95;;;4.82;;
46036;SDS011;31769;49.304;8.428;2022-10-16T17:45:08;10.25;;;7.50;;
46036;SDS011;31769;49.304;8.428;2022-10-16T17:48:09;12.40;;;7.00;;
46036;SDS011;31769;49.304;8.428;2022-10-16T17:51:11;30.88;;;21.92;;
46036;SDS011;31769;49.304;8.428;2022-10-16T17:54:13;24.25;;;17.75;;
46036;SDS011;31769;49.304;8.428;2022-10-16T17:57:14;18.40;;;9.50;;
46036;SDS011;31769;49.304;8.428;2022-10-16T18:00:14;8.57;;;5.30;;
46036;SDS011;31769;49.304;8.428;2022-10-16T18:03:15;9.18;;;5.18;;
46036;SDS011;31769;49.304;8.428;2022-10-16T18:06:16;8.80;;;4.30;;
46036;SDS011;31769;49.304;8.428;2022-10-16T18:09:17;12.07;;;6.07;;
46036;SDS011;31769;49.304;8.428;2022-10-16T18:12:19;9.98;;;5.32;;
46036;SDS011;31769;49.304;8.428;2022-10-16T18:15:20;7.72;;;5.65;;
46036;SDS011;31769;49.304;8.428;2022-10-16T18:18:21;5.00;;;4.50;;
46036;SDS011;31769;49.304;8.428;2022-10-16T18:21:21;9.50;;;5.45;;
46036;SDS011;31769;49.304;8.428;2022-10-16T18:24:23;17.40;;;15.48;;
46036;SDS011;31769;49.304;8.428;2022-10-16T18:27:24;11.15;;;8.50;;
46036;SDS011;31769;49.304;8.428;2022-10-16T18:30:25;8.95;;;5.50;;
46036;SDS011;31769;49.304;8.428;2022-10-16T18:33:26;5.78;;;4.97;;
46036;SDS011;31769;49.304;8.428;2022-10-16T18:36:30;9.13;;;5.75;;
46036;SDS011;31769;49.304;8.428;2022-10-16T18:39:32;7.82;;;4.65;;
46036;SDS011;31769;49.304;8.428;2022-10-16T18:42:33;7.00;;;4.30;;
46036;SDS011;31769;49.304;8.428;2022-10-16T18:45:34;5.35;;;4.40;;
46036;SDS011;31769;49.304;8.428;2022-10-16T18:48:34;9.63;;;4.32;;
46036;SDS011;31769;49.304;8.428;2022-10-16T18:51:37;5.43;;;4.32;;
46036;SDS011;31769;49.304;8.428;2022-10-16T18:54:39;16.23;;;5.38;;
46036;SDS011;31769;49.304;8.428;2022-10-16T18:57:40;10.52;;;5.05;;
46036;SDS011;31769;49.304;8.428;2022-10-16T19:00:41;9.15;;;5.00;;
46036;SDS011;31769;49.304;8.428;2022-10-16T19:03:42;6.70;;;5.07;;
46036;SDS011;31769;49.304;8.428;2022-10-16T19:06:44;10.05;;;5.63;;
46036;SDS011;31769;49.304;8.428;2022-10-16T19:09:46;9.38;;;5.47;;
46036;SDS011;31769;49.304;8.428;2022-10-16T19:12:47;5.53;;;4.13;;
46036;SDS011;31769;49.304;8.428;2022-10-16T19:15:47;8.38;;;5.90;;
46036;SDS011;31769;49.304;8.428;2022-10-16T19:18:48;7.18;;;5.38;;
46036;SDS011;31769;49.304;8.428;2022-10-16T19:21:51;12.35;;;8.35;;
46036;SDS011;31769;49.304;8.428;2022-10-16T19:25:00;9.32;;;4.78;;
46036;SDS011;31769;49.304;8.428;2022-10-16T19:28:00;7.47;;;4.10;;
46036;SDS011;31769;49.304;8.428;2022-10-16T19:31:07;22.75;;;18.88;;
46036;SDS011;31769;49.304;8.428;2022-10-16T19:37:13;8.13;;;5.40;;
46036;SDS011;31769;49.304;8.428;2022-10-16T19:40:14;6.57;;;4.05;;
46036;SDS011;31769;49.304;8.428;2022-10-16T19:43:15;6.20;;;4.30;;
46036;SDS011;31769;49.304;8.428;2022-10-16T19:46:17;10.23;;;5.70;;
46036;SDS011;31769;49.304;8.428;2022-10-16T19:49:19;12.10;;;4.85;;